Pagrindinis puslapis
METAR-TAF:

METAR-TAF

Oro uostai :

Sirtas, Turkija

platuma: 37-58-41N, ilguma: 41-50-21E, Aukštis: 610 m

Dabartinis oras

Ataskaita buvo paskelbta 7 valandos ir 17 minutes, ne 13:50 UTC
Vėjas 4 kt iš Vakarų/Šiaurės Vakarų
Temperatūra 10°C
Drėgmė 87%
Slėgis 1021 hPa
Matomumas 10 km arba daugiau
Išsisklaidę debesys ne aukštis 4000 ft
Su prošvaistėmis ne aukštis 10000 ft

METAR: LTCL 151350Z 29004KT 9999 SCT040 BKN100 10/08 Q1021

Laikas: 00:07 (21:07 UTC)

Prognozė

Ataskaita buvo paskelbta 7 valandos ir 27 minutes, ne 13:40 UTC
Prognozė galioja nuo 15 metu 15 UTC su 15 metu 24 UTC
Vėjas 2 kt nuo kintamojo kryptimis
Matomumas 10 km arba daugiau
Išsisklaidę debesys ne aukštis 4000 ft
Su prošvaistėmis ne aukštis 10000 ft
Laikinai
nuo 15 metu 15 UTC su 15 metu 18 UTC
Su prošvaistėmis ne aukštis 3000 ft
Su prošvaistėmis ne aukštis 9000 ft
lietus

TAF: LTCL 151340Z 1515/1524 VRB02KT 9999 SCT040 BKN100 TEMPO 1515/1518 -RA BKN030 BKN090

Orai ataskaitas ir orų prognozės (METAR, TAF).

turimą stotys yra geltonos ir raudonos taškus žemėlapyje.

Perkelti pele per norėdami pamatyti stoties vardą.

Tada spustelėkite, norėdami matyti oro stebėjimo ir prognozės.

Norėdami pakeisti žemėlapį: spustelėkite ant žalios mygtukų su juodo kryžiaus žemyn,; žalią mygtuką su brūkšneliu, jei norite nutolinti; arba žalių rodyklių gretimoms žemėlapius.


METAR-TAF: